Time;durP1;ratioP1;P1;durP2;ratioP2;P2;SDS_P1;SDS_P2;PMS_P1;PMS_P2;Temp;Humidity;BMP_temperature;BMP_pressure;BME280_temperature;BME280_humidity;BME280_pressure;Samples;Min_cycle;Max_cycle;Signal;HPM_P1;HPM_P2
2021/04/22 00:01:49;;;;;;;14.55;5.40;;;6.00;99.90;;;;;;5032921;28;20198;-36
2021/04/22 00:04:16;;;;;;;20.15;5.88;;;6.00;99.90;;;;;;5031320;28;20226;-35
2021/04/22 00:06:44;;;;;;;15.57;5.18;;;6.10;99.90;;;;;;5031425;28;20305;-37
2021/04/22 00:09:11;;;;;;;19.60;5.30;;;6.20;99.90;;;;;;5023661;28;20311;-36
2021/04/22 00:11:38;;;;;;;14.82;6.63;;;6.30;99.90;;;;;;5016329;28;20207;-36
2021/04/22 00:14:05;;;;;;;16.63;5.38;;;6.40;99.90;;;;;;5022252;28;20219;-35
2021/04/22 00:16:33;;;;;;;16.65;5.95;;;6.30;99.90;;;;;;5032067;28;20204;-36
2021/04/22 00:19:00;;;;;;;14.80;6.10;;;6.30;99.90;;;;;;5017725;28;20228;-35
2021/04/22 00:21:27;;;;;;;21.60;6.75;;;6.10;99.90;;;;;;5024465;28;20240;-36
2021/04/22 00:23:54;;;;;;;11.15;5.03;;;6.20;99.90;;;;;;5025898;28;20398;-36
2021/04/22 00:26:22;;;;;;;16.05;5.65;;;6.20;99.90;;;;;;5021227;28;20196;-37
2021/04/22 00:28:49;;;;;;;18.42;5.90;;;6.20;99.90;;;;;;5013740;28;20815;-36
2021/04/22 00:31:16;;;;;;;17.38;6.57;;;6.10;99.90;;;;;;5029493;28;20383;-36
2021/04/22 00:33:42;;;;;;;19.88;6.25;;;6.20;99.90;;;;;;5027671;28;20192;-37
2021/04/22 00:36:09;;;;;;;20.08;6.32;;;6.20;99.90;;;;;;5030039;28;20188;-37
2021/04/22 00:38:36;;;;;;;16.52;6.63;;;6.30;99.90;;;;;;5026579;28;20191;-36
2021/04/22 00:41:04;;;;;;;25.67;5.55;;;6.30;99.90;;;;;;5016378;28;20204;-36
2021/04/22 00:43:31;;;;;;;21.77;5.82;;;6.20;99.90;;;;;;5028589;28;20228;-37
2021/04/22 00:45:58;;;;;;;18.65;5.68;;;6.10;99.90;;;;;;5021247;28;20291;-37
2021/04/22 00:48:26;;;;;;;18.20;5.95;;;6.20;99.90;;;;;;5013980;28;20625;-38
2021/04/22 00:51:05;;;;;;;21.92;6.22;;;6.10;99.90;;;;;;5030210;28;20254;-35
2021/04/22 00:53:35;;;;;;;20.52;5.65;;;6.00;99.90;;;;;;5029966;28;20337;-36
2021/04/22 00:56:02;;;;;;;17.55;5.30;;;6.00;99.90;;;;;;5032008;28;20250;-36
2021/04/22 00:58:31;;;;;;;21.88;6.07;;;6.00;99.90;;;;;;5031944;28;20204;-37
2021/04/22 01:01:00;;;;;;;20.80;5.85;;;6.00;99.90;;;;;;5031744;28;20208;-35
2021/04/22 01:03:28;;;;;;;18.20;5.97;;;6.00;99.90;;;;;;5031744;28;20204;-35
2021/04/22 01:05:57;;;;;;;17.60;7.15;;;6.20;99.90;;;;;;5032373;28;20620;-36
2021/04/22 01:08:23;;;;;;;16.65;5.35;;;6.30;99.90;;;;;;5031599;28;20246;-36
2021/04/22 01:10:50;;;;;;;15.20;5.63;;;6.20;99.90;;;;;;5044358;22;20247;-35
2021/04/22 01:13:18;;;;;;;25.77;7.10;;;6.20;99.90;;;;;;5028042;28;20254;-33
2021/04/22 01:15:45;;;;;;;12.65;5.82;;;6.30;99.90;;;;;;5030569;28;20184;-34
2021/04/22 01:18:13;;;;;;;21.80;6.13;;;6.20;99.90;;;;;;5030439;28;20212;-35
2021/04/22 01:20:43;;;;;;;12.60;4.97;;;6.20;99.90;;;;;;5030770;28;20281;-33
2021/04/22 01:23:12;;;;;;;11.77;4.93;;;6.30;99.90;;;;;;5011239;28;20201;-34
2021/04/22 01:25:40;;;;;;;14.82;5.93;;;6.40;99.90;;;;;;5029143;28;20346;-34
2021/04/22 01:28:10;;;;;;;12.88;5.95;;;6.40;99.90;;;;;;5030779;28;20275;-34
2021/04/22 01:30:39;;;;;;;11.75;5.10;;;6.30;99.90;;;;;;5030034;28;20247;-34
2021/04/22 01:33:08;;;;;;;13.95;5.93;;;6.00;99.90;;;;;;5030686;28;20269;-35
2021/04/22 01:35:38;;;;;;;14.13;5.07;;;6.00;99.90;;;;;;5031048;28;20192;-35
2021/04/22 01:38:06;;;;;;;17.90;5.55;;;5.90;99.90;;;;;;5030423;28;20246;-35
2021/04/22 01:40:36;;;;;;;14.73;4.85;;;5.90;99.90;;;;;;5030280;28;20258;-34
2021/04/22 01:43:04;;;;;;;15.55;5.40;;;5.90;99.90;;;;;;5030799;28;20243;-34
2021/04/22 01:45:31;;;;;;;19.73;5.07;;;6.00;99.90;;;;;;5030350;28;20196;-35
2021/04/22 01:47:58;;;;;;;15.85;5.70;;;6.10;99.90;;;;;;5029830;28;20203;-34
2021/04/22 01:50:29;;;;;;;14.40;5.88;;;6.10;99.90;;;;;;5029928;28;20233;-36
2021/04/22 01:52:57;;;;;;;17.83;6.97;;;6.00;99.90;;;;;;5030009;28;20224;-35
2021/04/22 01:55:30;;;;;;;16.88;5.28;;;6.10;99.90;;;;;;5030014;28;20218;-35
2021/04/22 01:57:58;;;;;;;14.05;6.55;;;6.10;99.90;;;;;;5029864;28;20245;-34
2021/04/22 02:00:29;;;;;;;15.77;6.10;;;6.00;99.90;;;;;;5030012;28;20208;-34
2021/04/22 02:02:56;;;;;;;16.35;6.35;;;5.80;99.90;;;;;;5030397;28;20192;-35
2021/04/22 02:05:23;;;;;;;23.52;6.45;;;5.90;99.90;;;;;;5030054;28;20327;-35
2021/04/22 02:07:50;;;;;;;16.95;6.70;;;5.90;99.90;;;;;;5029640;28;20206;-37
2021/04/22 02:10:18;;;;;;;23.08;6.05;;;5.90;99.90;;;;;;5029557;28;20220;-36
2021/04/22 02:12:45;;;;;;;16.48;7.65;;;5.80;99.90;;;;;;5029269;28;20415;-34
2021/04/22 02:15:17;;;;;;;15.80;5.22;;;5.80;99.90;;;;;;5029725;28;20195;-35
2021/04/22 02:17:44;;;;;;;13.20;5.30;;;5.70;99.90;;;;;;5024178;28;20235;-36
2021/04/22 02:20:12;;;;;;;14.02;5.90;;;5.70;99.90;;;;;;5025776;28;20239;-35
2021/04/22 02:22:40;;;;;;;15.77;5.18;;;5.80;99.90;;;;;;5029599;28;20246;-36
2021/04/22 02:25:10;;;;;;;9.02;5.53;;;5.70;99.90;;;;;;5029018;28;20192;-37
2021/04/22 02:27:38;;;;;;;20.50;6.35;;;5.90;99.90;;;;;;5029567;28;20196;-36
2021/04/22 02:30:07;;;;;;;18.40;6.30;;;5.90;99.90;;;;;;5029212;28;20215;-35
2021/04/22 02:32:35;;;;;;;21.17;6.10;;;6.00;99.90;;;;;;5029254;28;20582;-36
2021/04/22 02:35:02;;;;;;;12.80;4.95;;;6.00;99.90;;;;;;5029494;28;20200;-35
2021/04/22 02:37:29;;;;;;;11.55;4.78;;;5.90;99.90;;;;;;5028767;28;20299;-36
2021/04/22 02:39:56;;;;;;;11.63;4.60;;;5.90;99.90;;;;;;5029547;28;20216;-34
2021/04/22 02:42:23;;;;;;;16.58;5.70;;;6.00;99.90;;;;;;5028963;28;20224;-36
2021/04/22 02:44:50;;;;;;;13.90;5.70;;;6.00;99.90;;;;;;5029245;28;20208;-34
2021/04/22 02:47:16;;;;;;;14.00;4.95;;;6.00;99.90;;;;;;5029365;28;20195;-35
2021/04/22 02:49:44;;;;;;;10.48;4.97;;;5.90;99.90;;;;;;5028674;28;20295;-36
2021/04/22 02:52:11;;;;;;;18.52;6.13;;;5.90;99.90;;;;;;5029091;28;20194;-38
2021/04/22 02:54:38;;;;;;;15.27;5.90;;;5.90;99.90;;;;;;5029944;28;20200;-36
2021/04/22 02:57:10;;;;;;;10.38;4.55;;;5.90;99.90;;;;;;5028863;28;20639;-35
2021/04/22 02:59:36;;;;;;;16.13;4.97;;;6.10;99.90;;;;;;5029158;28;20711;-35
2021/04/22 03:02:03;;;;;;;14.60;5.63;;;6.10;99.90;;;;;;5025485;28;20265;-34
2021/04/22 03:04:30;;;;;;;10.65;5.22;;;6.00;99.90;;;;;;5028567;28;20215;-34
2021/04/22 03:07:00;;;;;;;16.05;5.47;;;6.10;99.90;;;;;;5028928;28;20192;-35
2021/04/22 03:09:27;;;;;;;14.23;5.10;;;6.00;99.90;;;;;;5028803;28;20228;-36
2021/04/22 03:11:54;;;;;;;8.50;5.10;;;5.90;99.90;;;;;;5028627;28;20227;-36
2021/04/22 03:14:21;;;;;;;21.98;5.90;;;6.00;99.90;;;;;;5028927;28;20223;-35
2021/04/22 03:16:48;;;;;;;14.45;4.80;;;5.80;99.90;;;;;;5028811;28;20220;-36
2021/04/22 03:19:14;;;;;;;14.85;5.60;;;5.70;99.90;;;;;;5031100;28;20220;-35
2021/04/22 03:21:41;;;;;;;35.95;8.68;;;5.80;99.90;;;;;;5032763;28;20195;-35
2021/04/22 03:24:10;;;;;;;11.27;4.82;;;5.80;99.90;;;;;;5032615;28;20196;-35
2021/04/22 03:26:37;;;;;;;10.93;5.05;;;5.80;99.90;;;;;;5032442;28;20274;-34
2021/04/22 03:29:04;;;;;;;22.23;4.90;;;5.90;99.90;;;;;;5032949;28;20300;-35
2021/04/22 03:31:31;;;;;;;17.60;6.00;;;5.90;99.90;;;;;;5032635;28;20211;-34
2021/04/22 03:33:58;;;;;;;13.35;6.18;;;6.00;99.90;;;;;;5032353;28;20218;-36
2021/04/22 03:36:25;;;;;;;15.00;4.75;;;6.00;99.90;;;;;;5032579;28;20286;-36
2021/04/22 03:38:54;;;;;;;13.23;5.70;;;6.00;99.90;;;;;;5024221;28;20313;-34
2021/04/22 03:41:22;;;;;;;12.00;4.93;;;5.90;99.90;;;;;;5032468;28;20192;-34
2021/04/22 03:43:49;;;;;;;17.40;5.88;;;5.90;99.90;;;;;;5032365;28;20283;-35
2021/04/22 03:46:16;;;;;;;15.23;7.45;;;6.00;99.90;;;;;;5032100;28;20222;-36
2021/04/22 03:48:43;;;;;;;16.10;5.15;;;6.00;99.90;;;;;;5032154;28;20188;-36
2021/04/22 03:51:10;;;;;;;10.30;5.28;;;6.00;99.90;;;;;;5032332;28;20346;-34
2021/04/22 03:53:36;;;;;;;14.23;5.90;;;6.00;99.90;;;;;;5031779;28;20192;-36
2021/04/22 03:56:03;;;;;;;17.65;5.15;;;6.00;99.90;;;;;;5032155;28;20271;-36
2021/04/22 03:58:31;;;;;;;14.18;4.60;;;6.00;99.90;;;;;;5032114;28;20707;-35
2021/04/22 04:00:57;;;;;;;19.45;4.28;;;5.90;99.90;;;;;;5031742;28;20231;-35
2021/04/22 04:03:25;;;;;;;8.70;4.30;;;5.90;99.90;;;;;;5051403;22;20239;-80
2021/04/22 04:05:51;;;;;;;10.93;4.45;;;5.90;99.90;;;;;;5018617;28;20244;-79
2021/04/22 04:08:18;;;;;;;10.35;4.70;;;5.90;99.90;;;;;;5018782;28;20201;-80
2021/04/22 04:10:45;;;;;;;13.68;5.15;;;5.90;99.90;;;;;;5019902;28;20192;-80
2021/04/22 04:13:12;;;;;;;13.77;5.20;;;6.00;99.90;;;;;;5020346;28;20201;-79
2021/04/22 04:15:40;;;;;;;17.05;4.80;;;6.00;99.90;;;;;;5019407;28;20478;-82
2021/04/22 04:18:07;;;;;;;11.88;4.72;;;6.00;99.90;;;;;;5025361;22;20228;-35
2021/04/22 04:20:34;;;;;;;10.57;4.72;;;5.90;99.90;;;;;;5013185;28;20192;-34
2021/04/22 04:23:01;;;;;;;13.68;6.38;;;5.90;99.90;;;;;;5012964;28;20217;-34
2021/04/22 04:25:28;;;;;;;10.50;5.53;;;5.80;99.90;;;;;;5012880;28;20341;-33
2021/04/22 04:27:55;;;;;;;17.08;5.18;;;5.90;99.90;;;;;;5012268;28;20199;-35
2021/04/22 04:30:22;;;;;;;13.68;5.43;;;5.80;99.90;;;;;;5012652;28;20243;-36
2021/04/22 04:32:50;;;;;;;18.48;5.25;;;5.90;99.90;;;;;;5025498;22;20201;-36
2021/04/22 04:35:17;;;;;;;13.70;5.00;;;5.90;99.90;;;;;;5010467;28;20577;-34
2021/04/22 04:37:43;;;;;;;10.85;4.65;;;6.00;99.90;;;;;;5011462;28;20742;-36
2021/04/22 04:40:13;;;;;;;12.23;4.35;;;5.90;99.90;;;;;;5012206;28;20284;-34
2021/04/22 04:42:41;;;;;;;9.77;4.05;;;5.80;99.90;;;;;;5011440;28;20706;-34
2021/04/22 04:45:08;;;;;;;12.07;4.93;;;5.80;99.90;;;;;;5011981;28;20205;-34
2021/04/22 04:47:35;;;;;;;13.07;5.85;;;5.70;99.90;;;;;;5011424;28;20275;-35
2021/04/22 04:50:04;;;;;;;19.02;5.05;;;5.70;99.90;;;;;;5011741;28;20231;-35
2021/04/22 04:52:30;;;;;;;12.15;4.10;;;5.70;99.90;;;;;;5011336;28;20220;-35
2021/04/22 04:54:57;;;;;;;10.05;4.97;;;5.80;99.90;;;;;;5011481;28;20278;-34
2021/04/22 04:57:24;;;;;;;13.70;5.47;;;5.90;99.90;;;;;;5008350;28;20307;-34
2021/04/22 04:59:51;;;;;;;17.20;5.70;;;5.90;99.90;;;;;;5010539;28;20579;-35
2021/04/22 05:02:18;;;;;;;10.85;5.10;;;5.90;99.90;;;;;;5010937;28;20197;-35
2021/04/22 05:04:45;;;;;;;17.00;6.10;;;5.90;99.90;;;;;;5011359;28;20224;-34
2021/04/22 05:07:12;;;;;;;15.55;5.70;;;6.00;99.90;;;;;;5012004;28;20245;-33
2021/04/22 05:09:40;;;;;;;9.25;4.72;;;5.80;99.90;;;;;;5010739;28;20189;-36
2021/04/22 05:12:07;;;;;;;19.52;5.95;;;5.80;99.90;;;;;;5010921;28;20237;-33
2021/04/22 05:14:34;;;;;;;17.05;5.57;;;5.80;99.90;;;;;;5010978;28;20572;-35
2021/04/22 05:17:01;;;;;;;12.18;4.90;;;5.90;99.90;;;;;;5010425;28;20303;-34
2021/04/22 05:19:28;;;;;;;12.95;4.50;;;5.90;99.90;;;;;;5011112;28;20196;-35
2021/04/22 05:21:54;;;;;;;19.42;5.43;;;5.90;99.90;;;;;;5010521;28;20619;-36
2021/04/22 05:24:23;;;;;;;17.23;5.95;;;5.80;99.90;;;;;;5010941;28;20220;-35
2021/04/22 05:26:49;;;;;;;13.73;4.43;;;5.90;99.90;;;;;;5010483;28;20201;-34
2021/04/22 05:29:16;;;;;;;22.05;6.65;;;5.90;99.90;;;;;;5010316;28;20327;-35
2021/04/22 05:31:43;;;;;;;22.25;6.10;;;6.10;99.90;;;;;;5010606;28;20284;-35
2021/04/22 05:34:10;;;;;;;16.58;6.05;;;6.10;99.90;;;;;;5010394;28;20228;-34
2021/04/22 05:36:37;;;;;;;19.88;6.68;;;5.90;99.90;;;;;;5010301;28;20544;-37
2021/04/22 05:39:04;;;;;;;15.80;5.65;;;6.10;99.90;;;;;;5010418;28;20225;-34
2021/04/22 05:41:33;;;;;;;12.32;5.28;;;6.20;99.90;;;;;;4990220;28;20201;-34
2021/04/22 05:44:00;;;;;;;19.95;6.68;;;6.20;99.90;;;;;;5002485;28;20237;-34
2021/04/22 05:46:27;;;;;;;19.20;5.15;;;6.20;99.90;;;;;;4993968;28;20853;-33
2021/04/22 05:48:53;;;;;;;11.02;5.10;;;6.20;99.90;;;;;;4992753;28;20566;-35
2021/04/22 05:51:20;;;;;;;13.15;5.80;;;6.20;99.90;;;;;;5009203;28;20610;-34
2021/04/22 05:53:47;;;;;;;12.77;5.28;;;6.20;99.90;;;;;;5010386;28;20220;-33
2021/04/22 05:56:13;;;;;;;14.77;5.22;;;6.30;99.90;;;;;;5007206;28;20664;-33
2021/04/22 05:58:41;;;;;;;18.77;5.50;;;6.50;99.90;;;;;;4997117;28;20227;-34
2021/04/22 06:01:08;;;;;;;12.60;5.38;;;6.60;99.90;;;;;;5001359;28;20188;-33
2021/04/22 06:03:35;;;;;;;14.25;6.60;;;6.70;99.90;;;;;;5028891;28;20215;-35
2021/04/22 06:06:01;;;;;;;22.27;5.63;;;6.70;99.90;;;;;;5018831;28;20193;-35
2021/04/22 06:08:28;;;;;;;14.70;5.40;;;6.80;99.90;;;;;;5002495;28;20193;-34
2021/04/22 06:10:55;;;;;;;9.88;4.85;;;6.90;99.90;;;;;;4991125;28;20204;-34
2021/04/22 06:13:23;;;;;;;11.63;4.68;;;6.70;99.90;;;;;;4999090;28;20213;-33
2021/04/22 06:15:50;;;;;;;14.18;4.65;;;6.70;99.90;;;;;;5010339;28;20292;-36
2021/04/22 06:18:17;;;;;;;14.55;4.22;;;6.80;99.90;;;;;;5009559;28;20221;-34
2021/04/22 06:20:44;;;;;;;17.85;5.00;;;6.80;99.90;;;;;;5009092;28;20199;-34
2021/04/22 06:23:11;;;;;;;8.82;4.30;;;7.00;99.90;;;;;;5009773;28;20318;-34
2021/04/22 06:25:38;;;;;;;14.32;5.32;;;6.90;99.90;;;;;;5001118;28;20228;-34
2021/04/22 06:28:05;;;;;;;12.65;4.65;;;6.80;99.90;;;;;;4990025;28;20293;-37
2021/04/22 06:30:33;;;;;;;16.38;4.97;;;6.60;99.90;;;;;;4991973;28;20255;-34
2021/04/22 06:33:01;;;;;;;12.25;5.03;;;6.70;99.90;;;;;;4997410;28;20221;-35
2021/04/22 06:35:28;;;;;;;21.52;5.88;;;6.90;99.90;;;;;;5010987;28;20200;-34
2021/04/22 06:37:56;;;;;;;14.70;4.63;;;7.10;99.90;;;;;;5011104;28;20594;-34
2021/04/22 06:40:24;;;;;;;18.02;6.38;;;7.00;99.90;;;;;;5030286;28;20670;-33
2021/04/22 06:42:53;;;;;;;11.40;4.32;;;6.90;99.90;;;;;;5029560;28;20667;-33
2021/04/22 06:45:20;;;;;;;14.63;5.18;;;7.10;99.90;;;;;;4999561;28;20292;-32
2021/04/22 06:47:48;;;;;;;19.52;5.43;;;7.10;99.90;;;;;;5010319;28;20201;-33
2021/04/22 06:50:22;;;;;;;13.68;4.57;;;7.30;99.90;;;;;;5002815;28;20201;-32
2021/04/22 06:52:50;;;;;;;12.88;4.53;;;7.40;99.90;;;;;;5000679;28;20208;-36
2021/04/22 06:55:19;;;;;;;14.48;3.92;;;7.20;99.90;;;;;;5002616;28;20288;-34
2021/04/22 06:57:46;;;;;;;16.25;4.45;;;7.10;99.90;;;;;;4998402;28;20209;-32
2021/04/22 07:00:15;;;;;;;15.80;5.13;;;7.30;99.90;;;;;;5009282;28;20714;-34
2021/04/22 07:02:43;;;;;;;14.70;4.55;;;7.40;99.90;;;;;;5008062;28;20247;-33
2021/04/22 07:05:33;;;;;;;16.02;5.07;;;7.60;99.90;;;;;;5005848;28;20193;-32
2021/04/22 07:08:00;;;;;;;19.35;4.97;;;7.50;99.90;;;;;;5008212;28;20195;-33
2021/04/22 07:10:27;;;;;;;16.92;3.85;;;7.30;99.90;;;;;;5009130;28;20272;-36
2021/04/22 07:12:54;;;;;;;10.15;5.07;;;7.40;99.90;;;;;;5009278;28;20303;-34
2021/04/22 07:15:21;;;;;;;22.33;5.55;;;7.60;99.90;;;;;;5008086;28;20192;-33
2021/04/22 07:17:48;;;;;;;18.00;4.93;;;7.50;99.90;;;;;;4998762;28;20213;-35
2021/04/22 07:20:18;;;;;;;12.75;3.78;;;7.60;99.90;;;;;;5006437;28;20697;-34
2021/04/22 07:22:45;;;;;;;12.30;4.55;;;7.80;99.90;;;;;;5007207;28;20244;-34
2021/04/22 07:25:13;;;;;;;12.52;4.78;;;7.90;99.90;;;;;;5009078;28;20208;-35
2021/04/22 07:27:42;;;;;;;14.57;4.22;;;7.90;99.90;;;;;;5009544;28;20189;-34
2021/04/22 07:30:09;;;;;;;12.43;4.32;;;7.80;99.90;;;;;;5009469;28;20205;-34
2021/04/22 07:32:36;;;;;;;11.40;4.60;;;7.60;99.90;;;;;;5008372;28;20295;-33
2021/04/22 07:35:04;;;;;;;17.08;5.07;;;7.90;99.90;;;;;;5005389;28;20292;-33
2021/04/22 07:37:32;;;;;;;14.77;5.40;;;7.80;99.90;;;;;;4996434;28;20256;-34
2021/04/22 07:40:00;;;;;;;8.98;3.95;;;7.70;99.90;;;;;;5002098;28;20279;-33
2021/04/22 07:42:27;;;;;;;11.32;5.32;;;7.80;99.90;;;;;;4999815;28;20250;-34
2021/04/22 07:44:54;;;;;;;12.63;4.40;;;8.20;99.90;;;;;;5005970;28;20200;-33
2021/04/22 07:47:20;;;;;;;13.85;4.63;;;8.50;99.90;;;;;;5006042;28;20287;-34
2021/04/22 07:49:48;;;;;;;18.08;5.22;;;8.60;99.90;;;;;;5003082;28;20208;-34
2021/04/22 07:52:15;;;;;;;10.25;3.97;;;8.40;99.90;;;;;;5002897;28;20258;-34
2021/04/22 07:54:42;;;;;;;14.90;4.38;;;8.30;99.90;;;;;;5002382;28;20220;-34
2021/04/22 07:57:10;;;;;;;14.23;3.85;;;8.50;99.90;;;;;;5002133;28;20232;-33
2021/04/22 07:59:37;;;;;;;8.65;3.88;;;8.50;99.90;;;;;;5002557;28;20210;-35
2021/04/22 08:02:06;;;;;;;8.30;3.88;;;8.40;99.90;;;;;;5003645;28;20425;-34
2021/04/22 08:04:33;;;;;;;9.10;4.20;;;8.50;99.90;;;;;;5000298;28;20746;-36
2021/04/22 08:07:00;;;;;;;14.88;4.30;;;8.50;99.90;;;;;;5003341;28;20211;-34
2021/04/22 08:09:27;;;;;;;11.43;4.82;;;8.50;99.90;;;;;;5000299;28;20284;-35
2021/04/22 08:11:54;;;;;;;15.82;5.32;;;8.70;99.90;;;;;;5000772;28;20258;-34
2021/04/22 08:14:22;;;;;;;10.95;4.00;;;8.80;99.90;;;;;;5003310;28;20214;-36
2021/04/22 08:16:49;;;;;;;16.92;5.47;;;8.70;99.90;;;;;;5003162;28;20747;-36
2021/04/22 08:19:15;;;;;;;11.40;4.32;;;8.70;99.90;;;;;;5000089;28;20217;-33
2021/04/22 08:21:42;;;;;;;14.95;4.82;;;8.70;99.90;;;;;;5003202;28;20212;-33
2021/04/22 08:24:10;;;;;;;12.52;4.65;;;8.60;99.90;;;;;;5002785;28;20223;-33
2021/04/22 08:26:36;;;;;;;9.50;4.43;;;8.80;99.90;;;;;;5002045;28;20304;-32
2021/04/22 08:29:04;;;;;;;10.35;4.68;;;8.80;99.90;;;;;;5003670;28;20239;-35
2021/04/22 08:31:33;;;;;;;9.77;4.50;;;8.60;99.90;;;;;;5002546;28;20226;-32
2021/04/22 08:34:03;;;;;;;14.15;4.75;;;8.80;99.90;;;;;;5008776;28;20236;-34
2021/04/22 08:36:30;;;;;;;13.05;4.65;;;8.90;99.90;;;;;;5005432;28;20225;-35
2021/04/22 08:38:57;;;;;;;7.38;3.92;;;8.70;99.90;;;;;;5001359;28;20260;-34
2021/04/22 08:41:24;;;;;;;7.50;3.17;;;8.70;99.90;;;;;;5001805;28;20245;-33
2021/04/22 08:43:51;;;;;;;21.95;5.03;;;8.90;99.90;;;;;;5001209;28;20227;-34
2021/04/22 08:46:18;;;;;;;14.65;5.53;;;8.90;99.90;;;;;;5001869;28;20267;-34
2021/04/22 08:48:48;;;;;;;15.00;4.30;;;8.90;99.90;;;;;;4999678;28;20181;-34
2021/04/22 08:51:15;;;;;;;14.10;4.53;;;8.90;99.90;;;;;;4983890;28;20207;-34
2021/04/22 08:53:45;;;;;;;12.80;3.55;;;9.20;99.90;;;;;;5000493;28;20221;-33
2021/04/22 08:56:12;;;;;;;9.88;3.85;;;9.50;99.90;;;;;;5003630;28;20204;-34
2021/04/22 08:58:39;;;;;;;8.65;4.10;;;9.40;99.90;;;;;;5000207;28;20275;-37
2021/04/22 09:01:12;;;;;;;14.65;4.72;;;9.40;99.90;;;;;;5006168;28;20201;-32
2021/04/22 09:03:41;;;;;;;11.07;3.80;;;9.30;99.90;;;;;;5011585;28;20431;-32
2021/04/22 09:06:08;;;;;;;9.85;3.15;;;9.70;99.90;;;;;;5011964;28;20274;-34
2021/04/22 09:08:37;;;;;;;14.45;4.28;;;9.70;99.90;;;;;;5011405;28;20208;-33
2021/04/22 09:11:06;;;;;;;9.88;4.07;;;9.50;99.90;;;;;;5007891;28;20284;-33
2021/04/22 09:13:34;;;;;;;9.05;3.88;;;9.40;99.90;;;;;;5006791;28;20225;-34
2021/04/22 09:16:04;;;;;;;11.20;3.15;;;9.90;99.90;;;;;;5011202;28;20207;-33
2021/04/22 09:18:38;;;;;;;10.88;3.28;;;10.20;99.90;;;;;;5010940;28;20212;-33
2021/04/22 09:21:05;;;;;;;7.88;3.67;;;10.10;99.90;;;;;;5011245;28;20235;-34
2021/04/22 09:23:32;;;;;;;11.50;3.92;;;10.00;99.90;;;;;;5009395;28;20217;-33
2021/04/22 09:26:02;;;;;;;7.38;3.28;;;9.90;99.90;;;;;;5010396;28;20196;-33
2021/04/22 09:28:40;;;;;;;11.88;4.85;;;10.10;99.90;;;;;;5009346;28;20219;-33
2021/04/22 09:31:08;;;;;;;10.88;3.80;;;9.90;99.90;;;;;;5000554;28;20564;-32
2021/04/22 09:33:36;;;;;;;13.63;3.20;;;9.80;99.90;;;;;;5010699;28;20774;-32
2021/04/22 09:36:09;;;;;;;8.75;3.00;;;9.70;99.90;;;;;;5011357;28;20225;-32
2021/04/22 09:38:38;;;;;;;8.50;2.55;;;9.80;99.90;;;;;;5006285;28;20234;-33
2021/04/22 09:41:13;;;;;;;5.05;3.25;;;10.10;99.90;;;;;;5010894;28;20215;-34
2021/04/22 09:43:41;;;;;;;8.48;2.83;;;10.50;99.90;;;;;;5010421;28;20216;-34
2021/04/22 09:46:18;;;;;;;9.60;3.47;;;10.70;99.90;;;;;;5000000;28;20618;-34
2021/04/22 09:48:45;;;;;;;7.82;3.35;;;10.90;99.90;;;;;;4999184;28;20203;-34
2021/04/22 09:51:12;;;;;;;10.48;3.85;;;10.70;99.90;;;;;;5005017;28;20571;-34
2021/04/22 09:53:40;;;;;;;12.52;4.40;;;10.90;99.90;;;;;;5000480;28;20217;-34
2021/04/22 09:56:12;;;;;;;9.50;3.63;;;10.50;99.90;;;;;;4999553;28;20188;-35
2021/04/22 09:58:39;;;;;;;8.60;3.35;;;10.50;99.90;;;;;;4998719;28;20739;-34
2021/04/22 10:01:08;;;;;;;13.05;6.32;;;10.70;99.90;;;;;;5000627;28;20194;-35
2021/04/22 10:03:35;;;;;;;10.55;3.53;;;10.80;99.90;;;;;;5003612;28;20353;-36
2021/04/22 10:06:04;;;;;;;11.75;3.45;;;10.50;99.90;;;;;;5000623;28;20205;-35
2021/04/22 10:08:31;;;;;;;13.00;4.43;;;10.30;99.90;;;;;;4999062;28;20329;-36
2021/04/22 10:11:02;;;;;;;8.82;4.85;;;10.40;99.90;;;;;;4998851;28;20280;-33
2021/04/22 10:13:30;;;;;;;6.18;3.45;;;10.90;99.90;;;;;;5000101;28;20263;-34
2021/04/22 10:15:58;;;;;;;9.98;5.63;;;10.90;99.90;;;;;;5001405;28;20614;-34
2021/04/22 10:18:35;;;;;;;7.45;3.78;;;11.00;99.90;;;;;;5004546;28;20208;-34
2021/04/22 10:21:02;;;;;;;11.48;5.15;;;11.00;99.90;;;;;;5004929;28;20254;-33
2021/04/22 10:23:30;;;;;;;9.32;3.70;;;11.20;99.90;;;;;;4999925;28;20292;-34
2021/04/22 10:25:57;;;;;;;7.82;4.15;;;11.10;99.90;;;;;;4996775;28;20192;-33
2021/04/22 10:28:25;;;;;;;6.75;3.75;;;10.90;99.90;;;;;;4999007;28;20284;-34
2021/04/22 10:30:55;;;;;;;14.18;4.40;;;10.80;99.90;;;;;;4999522;28;20201;-33
2021/04/22 10:33:22;;;;;;;7.15;3.10;;;10.80;99.90;;;;;;5000824;28;20235;-34
2021/04/22 10:35:49;;;;;;;14.27;4.40;;;10.70;99.90;;;;;;5001607;28;20227;-36
2021/04/22 10:38:18;;;;;;;12.80;3.47;;;11.00;99.90;;;;;;4999091;28;20723;-33
2021/04/22 10:40:49;;;;;;;6.78;3.42;;;11.40;99.90;;;;;;4998827;28;20204;-34
2021/04/22 10:43:18;;;;;;;11.35;2.90;;;11.50;99.90;;;;;;5000843;28;20209;-34
2021/04/22 10:45:45;;;;;;;12.80;4.65;;;11.70;99.90;;;;;;5001737;28;20200;-34
2021/04/22 10:48:12;;;;;;;8.35;3.53;;;11.60;99.90;;;;;;5004877;28;20217;-35
2021/04/22 10:50:42;;;;;;;8.50;3.45;;;11.00;99.90;;;;;;4999343;28;20220;-32
2021/04/22 10:53:13;;;;;;;11.75;3.25;;;11.10;99.90;;;;;;4998891;28;20208;-34
2021/04/22 10:55:43;;;;;;;8.93;3.33;;;11.20;99.90;;;;;;5001907;28;20193;-34
2021/04/22 10:58:17;;;;;;;11.27;3.95;;;11.40;99.90;;;;;;4999889;28;20204;-32
2021/04/22 11:00:50;;;;;;;10.25;3.92;;;11.60;99.90;;;;;;5000693;28;20419;-33
2021/04/22 11:03:28;;;;;;;8.60;2.70;;;11.70;99.90;;;;;;5005959;28;20223;-32
2021/04/22 11:05:59;;;;;;;6.80;3.80;;;11.60;99.90;;;;;;5001608;28;20231;-32
2021/04/22 11:08:32;;;;;;;10.88;3.60;;;11.40;99.90;;;;;;4998627;28;20189;-33
2021/04/22 11:10:59;;;;;;;7.68;3.33;;;11.40;99.90;;;;;;5000060;28;20618;-33
2021/04/22 11:13:30;;;;;;;7.15;3.88;;;11.40;99.90;;;;;;4999186;28;20610;-34
2021/04/22 11:16:03;;;;;;;12.25;4.40;;;11.10;99.90;;;;;;4999524;28;20264;-33
2021/04/22 11:18:36;;;;;;;6.93;3.15;;;11.00;99.90;;;;;;5000405;28;20206;-34
2021/04/22 11:21:05;;;;;;;13.40;4.00;;;11.10;99.90;;;;;;4998495;28;20213;-33
2021/04/22 11:23:42;;;;;;;8.15;3.75;;;11.30;99.90;;;;;;4999138;28;20700;-35
2021/04/22 11:26:19;;;;;;;7.47;3.10;;;11.70;99.90;;;;;;4997088;28;20710;-34
2021/04/22 11:28:46;;;;;;;6.95;3.15;;;11.90;99.90;;;;;;5000317;28;20200;-36
2021/04/22 11:31:17;;;;;;;10.65;4.32;;;12.20;99.90;;;;;;4997589;28;20223;-34
2021/04/22 11:33:45;;;;;;;10.98;3.88;;;12.30;99.90;;;;;;5000241;28;20239;-34
2021/04/22 11:36:14;;;;;;;13.98;3.90;;;11.60;99.90;;;;;;5000253;28;20200;-34
2021/04/22 11:38:58;;;;;;;9.38;4.47;;;11.50;99.90;;;;;;5002023;28;20227;-35
2021/04/22 11:41:27;;;;;;;6.82;4.15;;;11.80;99.90;;;;;;4997463;28;20209;-36
2021/04/22 11:44:03;;;;;;;8.95;3.08;;;11.80;99.90;;;;;;5002564;28;20295;-35
2021/04/22 11:46:36;;;;;;;8.65;3.95;;;11.70;99.90;;;;;;5002922;28;20713;-36
2021/04/22 11:49:04;;;;;;;10.95;4.43;;;11.70;99.90;;;;;;5006842;28;20241;-35
2021/04/22 11:51:39;;;;;;;9.20;5.25;;;12.00;99.90;;;;;;5005561;28;20467;-34
2021/04/22 11:54:20;;;;;;;12.63;3.47;;;12.40;99.90;;;;;;5000927;28;20780;-34
2021/04/22 11:56:58;;;;;;;9.35;3.85;;;12.70;99.90;;;;;;5002369;28;20212;-34
2021/04/22 11:59:26;;;;;;;9.95;3.90;;;12.70;99.90;;;;;;5003995;28;20212;-35
2021/04/22 12:01:58;;;;;;;10.35;4.38;;;12.90;99.90;;;;;;5004893;28;20299;-33
2021/04/22 12:04:35;;;;;;;10.57;4.53;;;13.20;99.90;;;;;;5007897;28;20236;-33
2021/04/22 12:07:05;;;;;;;8.95;4.10;;;13.70;99.90;;;;;;5008168;28;20265;-33
2021/04/22 12:09:33;;;;;;;14.82;4.25;;;13.40;99.90;;;;;;4996768;28;20197;-34
2021/04/22 12:12:08;;;;;;;8.45;4.20;;;13.50;99.90;;;;;;5008906;28;20196;-35
2021/04/22 12:14:35;;;;;;;12.82;4.30;;;13.90;99.90;;;;;;5011624;28;20274;-34
2021/04/22 12:17:03;;;;;;;11.73;3.53;;;13.30;99.90;;;;;;5010338;28;20215;-36
2021/04/22 12:19:31;;;;;;;8.90;3.85;;;13.10;99.90;;;;;;5001085;28;20691;-33
2021/04/22 12:22:01;;;;;;;5.80;3.00;;;13.10;99.90;;;;;;5001360;28;20247;-35
2021/04/22 12:24:28;;;;;;;8.18;2.92;;;13.40;99.90;;;;;;5011472;28;20220;-35
2021/04/22 12:26:55;;;;;;;9.95;3.42;;;13.70;99.90;;;;;;5011931;28;20193;-33
2021/04/22 12:29:22;;;;;;;7.93;3.30;;;14.20;99.90;;;;;;5010698;28;20665;-36
2021/04/22 12:31:57;;;;;;;5.93;3.67;;;14.20;99.90;;;;;;5010700;28;20284;-32
2021/04/22 12:34:29;;;;;;;17.10;7.55;;;13.80;99.90;;;;;;5011957;28;20436;-36
2021/04/22 12:36:59;;;;;;;9.82;4.43;;;13.60;99.90;;;;;;5011975;28;20540;-34
2021/04/22 12:39:28;;;;;;;9.18;3.70;;;13.50;99.90;;;;;;5011589;28;20794;-33
2021/04/22 12:42:04;;;;;;;11.40;4.65;;;13.20;99.90;;;;;;5008215;28;20209;-33
2021/04/22 12:44:31;;;;;;;10.13;5.07;;;13.10;99.90;;;;;;5001134;28;20220;-33
2021/04/22 12:47:03;;;;;;;7.85;4.03;;;12.90;99.90;;;;;;5005814;28;20224;-34
2021/04/22 12:49:31;;;;;;;8.80;3.75;;;12.80;99.90;;;;;;5010402;28;20640;-34
2021/04/22 12:51:57;;;;;;;5.93;3.50;;;12.80;99.90;;;;;;5010970;28;20204;-34